HTDA

Julius Nyerere International Airport

Dar es Salaam, Tanzania
TAF HTDA 252300Z 2600/2706 00000KT 9999 FEW015 BECMG 2606/2609 17010KT BKN018 FEW019CB
Issued Valid From Valid To
Apr-25 @ 23:00 UTC
(4 hours ago)
Apr-26 @ 00:00 UTC
(3 hours ago)
Apr-27 @ 06:00 UTC
(-1 days ago)
Apr-26 @ 00:00 to Apr-26 @ 06:00
TAF HTDA 252300Z 2600/2706 00000KT 9999 FEW015
Visibility Clouds
10,000+ meters
  • Few at 1,500' AGL
Becoming Apr-26 @ 06:00 to Apr-27 @ 06:00
BECMG 2606/2609 17010KT BKN018 FEW019CB
Wind Visibility Clouds
170° at 10 knots 10,000+ meters
  • Broken at 1,800' AGL
  • Few at 1,900' AGL
TAF HTDA 252300Z 2600/2706 00000KT 9999 FEW015 BECMG 2606/2609 17010KT BKN018 FEW019CB
Issued Apr-25 @ 23:00 UTC
(4 hours ago)
Valid From Apr-26 @ 00:00 UTC
(3 hours ago)
Valid To Apr-27 @ 06:00 UTC
(-1 days ago)
Apr-26 @ 00:00 - Apr-26 @ 06:00
Clouds
  • Few at 1,500' AGL
Becoming Apr-26 @ 06:00 - Apr-27 @ 06:00
Wind Visibility
170° at 10 knots 10,000+ meters
Clouds
  • Broken at 1,800' AGL
  • Few at 1,900' AGL